Time;durP1;ratioP1;P1;durP2;ratioP2;P2;SDS_P1;SDS_P2;PMS_P1;PMS_P2;Temp;Humidity;BMP_temperature;BMP_pressure;BME280_temperature;BME280_humidity;BME280_pressure;Samples;Min_cycle;Max_cycle;Signal;HPM_P1;HPM_P2
2023/12/28 00:01:22;;;;;;;16.07;12.10;;;3.30;99.90;;;;;;5055907;28;20236;-79
2023/12/28 00:03:47;;;;;;;18.77;12.33;;;3.30;99.90;;;;;;5056688;28;20184;-78
2023/12/28 00:06:14;;;;;;;21.10;13.57;;;3.30;99.90;;;;;;5056491;28;20213;-78
2023/12/28 00:08:41;;;;;;;30.20;16.27;;;3.30;99.90;;;;;;5055058;28;20702;-78
2023/12/28 00:11:06;;;;;;;25.17;13.60;;;3.20;99.90;;;;;;5055129;28;20660;-79
2023/12/28 00:13:32;;;;;;;40.80;14.90;;;3.20;99.90;;;;;;5053526;28;20178;-80
2023/12/28 00:15:58;;;;;;;23.23;14.30;;;3.30;99.90;;;;;;5055666;28;20653;-77
2023/12/28 00:18:24;;;;;;;36.33;14.43;;;3.20;99.90;;;;;;5055315;28;20181;-79
2023/12/28 00:20:50;;;;;;;22.90;14.07;;;3.20;99.90;;;;;;5055180;28;20175;-80
2023/12/28 00:23:15;;;;;;;29.23;12.77;;;3.10;99.90;;;;;;5055074;28;20174;-80
2023/12/28 00:25:41;;;;;;;18.70;12.13;;;3.10;99.90;;;;;;5054614;28;20538;-79
2023/12/28 00:28:07;;;;;;;30.43;13.03;;;3.10;99.90;;;;;;5054991;28;20213;-78
2023/12/28 00:30:33;;;;;;;20.83;13.23;;;3.10;99.90;;;;;;5054019;28;20593;-79
2023/12/28 00:32:59;;;;;;;21.63;13.33;;;3.00;99.90;;;;;;5054483;28;20180;-78
2023/12/28 00:35:24;;;;;;;26.97;13.90;;;3.10;99.90;;;;;;5054493;28;20217;-76
2023/12/28 00:37:50;;;;;;;29.47;13.47;;;3.00;99.90;;;;;;5070483;28;20209;-78
2023/12/28 00:40:16;;;;;;;22.57;12.20;;;3.00;99.90;;;;;;5056713;28;20182;-79
2023/12/28 00:42:42;;;;;;;21.37;12.83;;;3.00;99.90;;;;;;5055583;28;20183;-77
2023/12/28 00:45:09;;;;;;;28.73;13.63;;;3.10;99.90;;;;;;5071464;28;20190;-78
2023/12/28 00:47:35;;;;;;;31.13;13.73;;;3.10;99.90;;;;;;5056216;28;20317;-78
2023/12/28 00:50:01;;;;;;;30.27;13.83;;;3.10;99.90;;;;;;5086951;28;20179;-78
2023/12/28 00:52:26;;;;;;;37.87;13.30;;;3.00;99.90;;;;;;5054333;28;20193;-78
2023/12/28 00:54:52;;;;;;;24.17;13.77;;;3.00;99.90;;;;;;5056086;28;20706;-78
2023/12/28 00:57:18;;;;;;;25.00;13.57;;;3.00;99.90;;;;;;5055172;28;20187;-77
2023/12/28 00:59:44;;;;;;;29.53;14.53;;;3.10;99.90;;;;;;5054101;28;20178;-77
2023/12/28 01:02:09;;;;;;;40.80;13.63;;;3.00;99.90;;;;;;5060720;28;20182;-77
2023/12/28 01:04:35;;;;;;;22.97;13.53;;;2.90;99.90;;;;;;5071371;28;20179;-76
2023/12/28 01:07:02;;;;;;;26.73;13.30;;;2.80;99.90;;;;;;5059390;28;20227;-76
2023/12/28 01:09:28;;;;;;;27.60;13.40;;;2.70;99.90;;;;;;5057607;28;20168;-77
2023/12/28 01:11:54;;;;;;;27.67;13.97;;;2.70;99.90;;;;;;5088761;28;20221;-79
2023/12/28 01:14:20;;;;;;;19.80;13.07;;;2.80;99.90;;;;;;5054392;28;20632;-78
2023/12/28 01:16:45;;;;;;;18.07;13.13;;;2.80;99.90;;;;;;5055056;28;20178;-77
2023/12/28 01:19:11;;;;;;;25.07;13.47;;;2.80;99.90;;;;;;5065199;28;20186;-77
2023/12/28 01:21:37;;;;;;;19.63;13.07;;;2.90;99.90;;;;;;5058030;28;20169;-78
2023/12/28 01:24:03;;;;;;;23.30;13.13;;;2.80;99.90;;;;;;5055284;28;20188;-80
2023/12/28 01:26:29;;;;;;;20.20;12.40;;;2.70;99.90;;;;;;5054280;28;20203;-78
2023/12/28 01:28:54;;;;;;;25.30;12.40;;;2.70;99.90;;;;;;5054018;28;20233;-79
2023/12/28 01:31:20;;;;;;;21.47;12.37;;;2.50;99.90;;;;;;5053984;28;20174;-78
2023/12/28 01:33:46;;;;;;;18.33;13.13;;;2.60;99.90;;;;;;5054203;28;20168;-79
2023/12/28 01:36:19;;;;;;;22.23;12.77;;;2.70;99.90;;;;;;5055395;28;20280;-78
2023/12/28 01:38:45;;;;;;;17.20;12.93;;;2.70;99.90;;;;;;5053538;28;20175;-78
2023/12/28 01:41:12;;;;;;;21.60;13.57;;;2.70;99.90;;;;;;5053497;28;20254;-78
2023/12/28 01:43:38;;;;;;;21.83;13.10;;;2.70;99.90;;;;;;5052612;28;20172;-79
2023/12/28 01:46:15;;;;;;;15.53;12.83;;;2.80;99.90;;;;;;5054063;28;20174;-78
2023/12/28 01:48:42;;;;;;;18.80;12.27;;;2.90;99.90;;;;;;5053447;28;20256;-77
2023/12/28 01:51:08;;;;;;;23.07;12.73;;;2.80;99.90;;;;;;5053816;28;20502;-79
2023/12/28 01:53:34;;;;;;;18.87;13.60;;;2.80;99.90;;;;;;5054027;28;20171;-79
2023/12/28 01:56:00;;;;;;;26.27;12.07;;;2.80;99.90;;;;;;5053311;28;20644;-78
2023/12/28 01:58:29;;;;;;;47.73;12.13;;;2.60;99.90;;;;;;5054733;28;20175;-78
2023/12/28 02:00:58;;;;;;;20.47;10.87;;;2.50;99.90;;;;;;5054233;28;20198;-80
2023/12/28 02:03:24;;;;;;;44.20;13.33;;;2.30;99.90;;;;;;5053448;28;20239;-79
2023/12/28 02:05:51;;;;;;;27.20;10.53;;;2.50;99.90;;;;;;5053495;28;20175;-80
2023/12/28 02:08:17;;;;;;;28.87;10.53;;;2.40;99.90;;;;;;5053031;28;20750;-78
2023/12/28 02:10:43;;;;;;;13.50;10.77;;;2.40;99.90;;;;;;5052384;28;20253;-79
2023/12/28 02:13:09;;;;;;;17.27;10.37;;;2.50;99.90;;;;;;5051106;28;20582;-78
2023/12/28 02:15:35;;;;;;;14.63;10.23;;;2.50;99.90;;;;;;5052810;28;20530;-79
2023/12/28 02:18:03;;;;;;;29.27;10.63;;;2.50;99.90;;;;;;5052634;28;20186;-79
2023/12/28 02:20:30;;;;;;;33.07;10.70;;;2.50;99.90;;;;;;5056260;28;20169;-79
2023/12/28 02:22:56;;;;;;;25.93;10.73;;;2.50;99.90;;;;;;5063161;28;20208;-79
2023/12/28 02:25:22;;;;;;;22.90;10.67;;;2.60;99.90;;;;;;5053159;28;20604;-80
2023/12/28 02:27:49;;;;;;;13.63;10.67;;;2.40;99.90;;;;;;5051428;28;20305;-77
2023/12/28 02:30:22;;;;;;;38.07;12.20;;;2.60;99.90;;;;;;5052860;28;20514;-77
2023/12/28 02:32:48;;;;;;;32.23;17.37;;;2.50;99.90;;;;;;5051832;28;20587;-78
2023/12/28 02:35:17;;;;;;;18.67;11.20;;;2.50;99.90;;;;;;5054711;28;20173;-76
2023/12/28 02:37:45;;;;;;;23.13;11.57;;;2.30;99.90;;;;;;5065427;28;20177;-78
2023/12/28 02:40:14;;;;;;;15.67;11.23;;;2.30;99.90;;;;;;5055319;28;20208;-78
2023/12/28 02:42:40;;;;;;;19.30;12.20;;;2.30;99.90;;;;;;5053292;28;20172;-77
2023/12/28 02:45:07;;;;;;;16.97;10.87;;;2.30;99.90;;;;;;5055210;28;20172;-78
2023/12/28 02:47:32;;;;;;;22.57;12.00;;;2.30;99.90;;;;;;5059759;28;20242;-77
2023/12/28 02:49:59;;;;;;;17.87;10.77;;;2.30;99.90;;;;;;5068282;28;20175;-74
2023/12/28 02:52:25;;;;;;;16.93;11.00;;;2.30;99.90;;;;;;5063437;28;20183;-78
2023/12/28 02:54:51;;;;;;;34.87;13.63;;;2.30;99.90;;;;;;5054683;28;20165;-77
2023/12/28 02:57:18;;;;;;;21.20;12.10;;;2.30;99.90;;;;;;5056450;28;20236;-78
2023/12/28 02:59:47;;;;;;;18.70;12.10;;;2.30;99.90;;;;;;5056338;28;20658;-78
2023/12/28 03:02:13;;;;;;;14.20;10.90;;;2.30;99.90;;;;;;5052261;28;20249;-80
2023/12/28 03:04:38;;;;;;;18.07;11.63;;;2.30;99.90;;;;;;5052322;28;20641;-78
2023/12/28 03:07:07;;;;;;;15.47;10.57;;;2.20;99.90;;;;;;5051439;28;20259;-78
2023/12/28 03:09:34;;;;;;;15.63;10.83;;;2.20;99.90;;;;;;5052049;28;20206;-79
2023/12/28 03:12:00;;;;;;;14.07;9.97;;;2.30;99.90;;;;;;5053747;28;20297;-77
2023/12/28 03:14:26;;;;;;;17.77;11.03;;;2.30;99.90;;;;;;5054621;28;20584;-80
2023/12/28 03:16:52;;;;;;;17.93;10.73;;;2.20;99.90;;;;;;5056677;28;20172;-77
2023/12/28 03:19:17;;;;;;;20.37;10.20;;;2.10;99.90;;;;;;5057260;28;20189;-80
2023/12/28 03:21:43;;;;;;;23.03;10.77;;;2.10;99.90;;;;;;5055845;28;20181;-77
2023/12/28 03:24:09;;;;;;;18.63;11.23;;;1.90;99.90;;;;;;5056507;28;20536;-78
2023/12/28 03:26:41;;;;;;;18.60;10.50;;;1.90;99.90;;;;;;5057614;28;20165;-80
2023/12/28 03:29:08;;;;;;;15.07;11.67;;;1.90;99.90;;;;;;5057019;28;20653;-78
2023/12/28 03:31:33;;;;;;;20.57;9.27;;;2.00;99.90;;;;;;5056642;28;20196;-79
2023/12/28 03:33:59;;;;;;;22.37;9.83;;;2.10;99.90;;;;;;5059695;28;20269;-78
2023/12/28 03:36:25;;;;;;;12.80;10.50;;;2.10;99.90;;;;;;5075869;28;20171;-78
2023/12/28 03:38:51;;;;;;;26.23;10.00;;;2.10;99.90;;;;;;5074838;28;20184;-78
2023/12/28 03:41:20;;;;;;;25.67;10.80;;;2.10;99.90;;;;;;5066495;28;20183;-77
2023/12/28 03:43:46;;;;;;;19.90;9.07;;;2.00;99.90;;;;;;5056619;28;20177;-79
2023/12/28 03:46:13;;;;;;;12.53;8.80;;;2.00;99.90;;;;;;5056155;28;20632;-78
2023/12/28 03:48:39;;;;;;;22.97;10.30;;;2.00;99.90;;;;;;5061148;28;20218;-79
2023/12/28 03:51:05;;;;;;;20.90;9.50;;;2.00;99.90;;;;;;5056996;28;20172;-79
2023/12/28 03:53:31;;;;;;;24.93;10.50;;;2.00;99.90;;;;;;5056754;28;20233;-79
2023/12/28 03:55:58;;;;;;;15.20;9.07;;;1.90;99.90;;;;;;5058519;28;20174;-78
2023/12/28 03:58:24;;;;;;;11.47;9.43;;;1.80;99.90;;;;;;5056228;28;20187;-78
2023/12/28 04:00:52;;;;;;;18.20;11.07;;;1.90;99.90;;;;;;5055804;28;20169;-78
2023/12/28 04:03:17;;;;;;;14.10;9.60;;;2.00;99.90;;;;;;5055848;28;20176;-79
2023/12/28 04:05:44;;;;;;;16.63;8.63;;;2.00;99.90;;;;;;5056024;28;20175;-78
2023/12/28 04:08:10;;;;;;;24.47;14.17;;;2.00;99.90;;;;;;5056916;28;20245;-80
2023/12/28 04:10:37;;;;;;;15.40;8.93;;;2.00;99.90;;;;;;5055721;28;20176;-78
2023/12/28 04:13:03;;;;;;;16.07;9.47;;;2.00;99.90;;;;;;5055502;28;20179;-79
2023/12/28 04:15:30;;;;;;;15.43;9.57;;;1.90;99.90;;;;;;5055518;28;20251;-78
2023/12/28 04:17:55;;;;;;;15.23;9.53;;;1.80;99.90;;;;;;5055496;28;20191;-79
2023/12/28 04:20:21;;;;;;;12.90;9.50;;;1.70;99.90;;;;;;5056069;28;20185;-78
2023/12/28 04:22:47;;;;;;;15.50;10.00;;;1.60;99.90;;;;;;5055816;28;20576;-78
2023/12/28 04:25:13;;;;;;;12.87;9.53;;;1.70;99.90;;;;;;5056587;28;20173;-78
2023/12/28 04:27:39;;;;;;;19.73;9.03;;;1.80;99.90;;;;;;5055729;28;20200;-77
2023/12/28 04:30:06;;;;;;;14.97;9.30;;;1.60;99.90;;;;;;5056463;28;20183;-78
2023/12/28 04:32:34;;;;;;;9.73;8.73;;;1.60;99.90;;;;;;5064610;28;20599;-77
2023/12/28 04:35:00;;;;;;;12.07;8.30;;;1.70;99.90;;;;;;5065784;28;20197;-78
2023/12/28 04:37:26;;;;;;;11.43;8.60;;;1.60;99.90;;;;;;5073702;28;20194;-78
2023/12/28 04:39:53;;;;;;;16.23;9.37;;;1.40;99.90;;;;;;5060188;28;20179;-79
2023/12/28 04:42:19;;;;;;;10.53;9.17;;;1.30;99.90;;;;;;5055261;28;20199;-77
2023/12/28 04:44:45;;;;;;;10.13;9.00;;;1.40;99.90;;;;;;5055322;28;20239;-77
2023/12/28 04:47:10;;;;;;;11.73;9.23;;;1.30;99.90;;;;;;5057208;28;20554;-78
2023/12/28 04:49:36;;;;;;;11.20;8.93;;;1.20;99.90;;;;;;5055247;28;20644;-78
2023/12/28 04:52:02;;;;;;;12.50;9.97;;;1.20;99.90;;;;;;5055223;28;20651;-77
2023/12/28 04:54:28;;;;;;;11.43;8.27;;;1.20;99.90;;;;;;5055403;28;20175;-78
2023/12/28 04:56:54;;;;;;;11.20;8.93;;;1.40;99.90;;;;;;5054610;28;20169;-76
2023/12/28 04:59:19;;;;;;;11.73;8.73;;;1.40;99.90;;;;;;5070802;28;20203;-77
2023/12/28 05:01:45;;;;;;;11.87;9.50;;;1.40;99.90;;;;;;5056324;28;20651;-78
2023/12/28 05:04:11;;;;;;;14.70;10.40;;;1.40;99.90;;;;;;5055544;28;20187;-79
2023/12/28 05:06:37;;;;;;;15.53;9.63;;;1.30;99.90;;;;;;5055313;28;20180;-79
2023/12/28 05:09:04;;;;;;;14.53;10.23;;;1.40;99.90;;;;;;5054936;28;20212;-78
2023/12/28 05:11:30;;;;;;;15.93;9.83;;;1.30;99.90;;;;;;5055409;28;20625;-79
2023/12/28 05:13:56;;;;;;;11.70;9.80;;;1.20;99.90;;;;;;5054817;28;20584;-79
2023/12/28 05:16:23;;;;;;;12.27;10.13;;;1.20;99.90;;;;;;5054994;28;20650;-78
2023/12/28 05:18:49;;;;;;;12.13;9.23;;;1.20;99.90;;;;;;5055486;28;20178;-77
2023/12/28 05:21:15;;;;;;;10.77;8.73;;;1.20;99.90;;;;;;5055570;28;20190;-79
2023/12/28 05:23:40;;;;;;;11.23;9.10;;;1.10;99.90;;;;;;5054682;28;20179;-79
2023/12/28 05:26:06;;;;;;;11.83;8.87;;;1.10;99.90;;;;;;5054384;28;20184;-79
2023/12/28 05:28:32;;;;;;;10.33;8.53;;;1.20;99.90;;;;;;5053536;28;20201;-79
2023/12/28 05:31:00;;;;;;;12.27;8.93;;;1.20;99.90;;;;;;5053039;28;20666;-77
2023/12/28 05:33:26;;;;;;;9.40;7.53;;;1.20;99.90;;;;;;5054431;28;20172;-76
2023/12/28 05:35:52;;;;;;;11.53;8.27;;;1.20;99.90;;;;;;5053706;28;20685;-78
2023/12/28 05:38:18;;;;;;;10.73;7.47;;;1.20;99.90;;;;;;5059726;28;20206;-77
2023/12/28 05:40:47;;;;;;;10.50;7.63;;;1.20;99.90;;;;;;5054653;28;20168;-79
2023/12/28 05:43:13;;;;;;;9.47;7.57;;;1.20;99.90;;;;;;5055430;28;20175;-75
2023/12/28 05:45:39;;;;;;;10.20;8.00;;;1.20;99.90;;;;;;5055328;28;20192;-79
2023/12/28 05:48:05;;;;;;;7.63;6.43;;;1.20;99.90;;;;;;5054105;28;20257;-80
2023/12/28 05:50:31;;;;;;;10.27;7.37;;;1.20;99.90;;;;;;5054841;28;20203;-79
2023/12/28 05:52:57;;;;;;;8.17;6.73;;;1.20;99.90;;;;;;5057711;28;20168;-78
2023/12/28 05:55:22;;;;;;;8.37;7.03;;;1.20;99.90;;;;;;5053486;28;20252;-77
2023/12/28 05:57:48;;;;;;;8.03;6.70;;;1.30;99.90;;;;;;5055075;28;20194;-77
2023/12/28 06:00:16;;;;;;;8.10;6.67;;;1.20;99.90;;;;;;5054231;28;20180;-78
2023/12/28 06:02:41;;;;;;;9.33;6.87;;;1.20;99.90;;;;;;5055792;28;20171;-79
2023/12/28 06:05:07;;;;;;;8.30;6.87;;;1.20;99.90;;;;;;5055189;28;20187;-79
2023/12/28 06:07:34;;;;;;;8.27;6.60;;;1.20;99.90;;;;;;5053279;28;20284;-77
2023/12/28 06:10:00;;;;;;;9.53;7.10;;;1.20;99.90;;;;;;5055204;28;20546;-77
2023/12/28 06:12:25;;;;;;;9.47;7.67;;;1.30;99.90;;;;;;5060786;28;20198;-77
2023/12/28 06:14:51;;;;;;;11.53;8.57;;;1.20;99.90;;;;;;5063833;28;20655;-79
2023/12/28 06:17:18;;;;;;;10.57;8.37;;;1.20;99.90;;;;;;5065849;28;20175;-78
2023/12/28 06:19:44;;;;;;;10.50;8.80;;;1.00;99.90;;;;;;5056481;28;20167;-79
2023/12/28 06:22:10;;;;;;;11.00;8.67;;;1.00;99.90;;;;;;5068693;28;20179;-76
2023/12/28 06:24:40;;;;;;;9.73;8.10;;;1.10;99.90;;;;;;5070175;28;20240;-78
2023/12/28 06:27:05;;;;;;;13.37;10.03;;;1.10;99.90;;;;;;5054706;28;20194;-78
2023/12/28 06:29:31;;;;;;;13.00;9.97;;;1.00;99.90;;;;;;5053902;28;20191;-77
2023/12/28 06:31:57;;;;;;;12.70;9.73;;;1.00;99.90;;;;;;5054235;28;20173;-77
2023/12/28 06:34:23;;;;;;;13.07;9.67;;;0.90;99.90;;;;;;5070309;28;20173;-77
2023/12/28 06:36:48;;;;;;;10.43;8.70;;;0.90;99.90;;;;;;5057500;28;20171;-77
2023/12/28 06:39:15;;;;;;;9.93;8.23;;;0.90;99.90;;;;;;5053657;28;20182;-78
2023/12/28 06:41:41;;;;;;;12.07;9.23;;;0.90;99.90;;;;;;5053750;28;20266;-78
2023/12/28 06:44:08;;;;;;;10.23;8.40;;;0.90;99.90;;;;;;5054100;28;20207;-80
2023/12/28 06:46:34;;;;;;;11.40;9.43;;;0.80;99.90;;;;;;5053635;28;20202;-77
2023/12/28 06:48:59;;;;;;;11.87;8.47;;;0.80;99.90;;;;;;5053180;28;20248;-77
2023/12/28 06:51:26;;;;;;;10.87;8.57;;;0.70;99.90;;;;;;5056936;28;20208;-78
2023/12/28 06:53:52;;;;;;;12.63;9.17;;;0.70;99.90;;;;;;5057542;28;20170;-79
2023/12/28 06:56:18;;;;;;;11.30;9.00;;;0.70;99.90;;;;;;5058112;28;20183;-79
2023/12/28 06:58:44;;;;;;;10.87;8.33;;;0.70;99.90;;;;;;5057316;28;20508;-79
2023/12/28 07:01:10;;;;;;;14.43;8.43;;;0.60;99.90;;;;;;5056812;28;20223;-78
2023/12/28 07:03:36;;;;;;;32.23;21.90;;;0.70;99.90;;;;;;5056624;28;20524;-76
2023/12/28 07:06:03;;;;;;;15.93;12.70;;;0.80;99.90;;;;;;5056189;28;20182;-78
2023/12/28 07:08:29;;;;;;;14.97;12.03;;;0.70;99.90;;;;;;5057448;28;20224;-79
2023/12/28 07:10:54;;;;;;;29.43;20.73;;;0.60;99.90;;;;;;5058565;28;20197;-76
2023/12/28 07:13:20;;;;;;;16.30;13.10;;;0.60;99.90;;;;;;5057996;28;20184;-77
2023/12/28 07:15:46;;;;;;;19.97;14.20;;;0.70;99.90;;;;;;5056620;28;20171;-79
2023/12/28 07:18:12;;;;;;;14.10;11.93;;;0.70;99.90;;;;;;5055766;28;20661;-78
2023/12/28 07:20:38;;;;;;;12.30;10.63;;;0.70;99.90;;;;;;5057041;28;20265;-78
2023/12/28 07:23:03;;;;;;;15.50;12.23;;;0.60;99.90;;;;;;5057630;28;20216;-78
2023/12/28 07:25:29;;;;;;;14.00;11.27;;;0.60;99.90;;;;;;5057911;28;20178;-78
2023/12/28 07:27:55;;;;;;;12.43;9.70;;;0.70;99.90;;;;;;5055014;28;20631;-79
2023/12/28 07:30:21;;;;;;;11.57;9.53;;;0.70;99.90;;;;;;5055783;28;20179;-76
2023/12/28 07:32:46;;;;;;;10.27;9.13;;;0.50;99.90;;;;;;5058869;28;20178;-78
2023/12/28 07:35:12;;;;;;;12.07;9.53;;;0.50;99.90;;;;;;5069915;28;20259;-77
2023/12/28 07:37:38;;;;;;;19.33;13.70;;;0.70;99.90;;;;;;5058803;28;20181;-79
2023/12/28 07:40:04;;;;;;;17.30;11.10;;;0.70;99.90;;;;;;5055315;28;20521;-79
2023/12/28 07:42:30;;;;;;;12.63;10.20;;;0.70;99.90;;;;;;5056262;28;20187;-78
2023/12/28 07:44:56;;;;;;;14.13;10.87;;;0.70;99.90;;;;;;5055737;28;20217;-78
2023/12/28 07:47:22;;;;;;;13.43;10.63;;;0.70;99.90;;;;;;5056041;28;20218;-78
2023/12/28 07:49:47;;;;;;;14.43;10.33;;;0.80;99.90;;;;;;5061701;28;20175;-78
2023/12/28 07:52:13;;;;;;;19.07;10.00;;;0.70;99.90;;;;;;5071038;28;20280;-79
2023/12/28 07:54:39;;;;;;;13.60;10.83;;;0.70;99.90;;;;;;5057239;28;20180;-77
2023/12/28 07:57:05;;;;;;;19.33;12.20;;;0.80;99.90;;;;;;5055138;28;20265;-80
2023/12/28 07:59:30;;;;;;;16.63;11.57;;;0.90;99.90;;;;;;5056884;28;20185;-78
2023/12/28 08:01:57;;;;;;;18.47;13.27;;;0.90;99.90;;;;;;5058191;28;20573;-78
2023/12/28 08:04:23;;;;;;;30.07;16.60;;;1.00;99.90;;;;;;5060831;28;20175;-77
2023/12/28 08:06:48;;;;;;;30.33;17.63;;;1.00;99.90;;;;;;5053704;28;20218;-79
2023/12/28 08:09:14;;;;;;;29.70;17.40;;;1.00;99.90;;;;;;5057225;28;20184;-77
2023/12/28 08:11:40;;;;;;;29.83;17.23;;;1.00;99.90;;;;;;5047614;28;20187;-78
2023/12/28 08:14:06;;;;;;;27.00;16.57;;;0.90;99.90;;;;;;5060995;28;20183;-77
2023/12/28 08:16:32;;;;;;;23.53;14.20;;;0.90;99.90;;;;;;5059569;28;20175;-80
2023/12/28 08:18:57;;;;;;;16.67;12.57;;;0.90;99.90;;;;;;5055488;28;20581;-80
2023/12/28 08:21:23;;;;;;;14.10;10.80;;;0.90;99.90;;;;;;5054979;28;20185;-79
2023/12/28 08:23:49;;;;;;;13.63;10.30;;;0.80;99.90;;;;;;5056537;28;20541;-79
2023/12/28 08:26:15;;;;;;;13.37;9.90;;;0.90;99.90;;;;;;5061853;28;20187;-80
2023/12/28 08:28:41;;;;;;;14.10;10.40;;;1.10;99.90;;;;;;5054545;28;20210;-80
2023/12/28 08:31:08;;;;;;;12.60;10.40;;;1.20;99.90;;;;;;5056542;28;20183;-79
2023/12/28 08:33:35;;;;;;;11.00;9.17;;;1.20;99.90;;;;;;5070669;28;20184;-78
2023/12/28 08:36:03;;;;;;;12.40;9.90;;;1.30;99.90;;;;;;5055283;28;20179;-80
2023/12/28 08:38:28;;;;;;;13.30;9.53;;;1.20;99.90;;;;;;5054435;28;20182;-78
2023/12/28 08:40:54;;;;;;;13.97;10.67;;;1.30;99.90;;;;;;5053956;28;20192;-81
2023/12/28 08:43:20;;;;;;;12.33;10.57;;;1.40;99.90;;;;;;5055923;28;20723;-77
2023/12/28 08:45:46;;;;;;;12.93;10.43;;;1.50;99.90;;;;;;5054139;28;20237;-78
2023/12/28 08:48:12;;;;;;;13.47;10.60;;;1.50;99.90;;;;;;5054276;28;20215;-77
2023/12/28 08:50:37;;;;;;;10.50;9.03;;;1.60;99.90;;;;;;5054411;28;20268;-77
2023/12/28 08:53:04;;;;;;;11.20;8.93;;;1.70;99.90;;;;;;5063684;28;20180;-78
2023/12/28 08:55:30;;;;;;;10.57;8.77;;;1.70;99.90;;;;;;5060792;28;20182;-78
2023/12/28 08:57:56;;;;;;;10.53;9.00;;;1.70;99.90;;;;;;5055171;28;20184;-78
2023/12/28 09:00:22;;;;;;;12.47;8.97;;;1.60;99.90;;;;;;5055058;28;20231;-78
2023/12/28 09:02:48;;;;;;;12.00;8.80;;;1.70;99.90;;;;;;5054246;28;20187;-76
2023/12/28 09:05:14;;;;;;;12.83;9.67;;;1.60;99.90;;;;;;5054318;28;20183;-80
2023/12/28 09:07:42;;;;;;;11.23;9.83;;;1.70;99.90;;;;;;5055394;28;20255;-78
2023/12/28 09:10:10;;;;;;;12.07;9.50;;;1.80;99.90;;;;;;5053690;28;20183;-79
2023/12/28 09:12:36;;;;;;;11.80;10.00;;;1.90;99.90;;;;;;5053251;28;20199;-78
2023/12/28 09:15:02;;;;;;;12.70;9.97;;;2.00;99.90;;;;;;5053962;28;20215;-79
2023/12/28 09:17:28;;;;;;;10.43;9.30;;;2.10;99.90;;;;;;5053884;28;20183;-77
2023/12/28 09:19:54;;;;;;;10.50;9.30;;;2.20;99.90;;;;;;5055543;28;20183;-78
2023/12/28 09:22:19;;;;;;;11.20;8.87;;;2.30;99.90;;;;;;5041228;28;20242;-76
2023/12/28 09:24:45;;;;;;;12.47;8.90;;;2.50;99.90;;;;;;5034067;28;20263;-78
2023/12/28 09:27:11;;;;;;;9.03;8.13;;;2.60;99.90;;;;;;5034608;28;20235;-75
2023/12/28 09:29:37;;;;;;;12.90;8.40;;;2.70;99.90;;;;;;5050887;28;20206;-78
2023/12/28 09:32:03;;;;;;;10.17;8.33;;;2.70;99.90;;;;;;5035673;28;20174;-78
2023/12/28 09:34:28;;;;;;;9.83;8.07;;;2.70;99.90;;;;;;5032046;28;20220;-79
2023/12/28 09:36:55;;;;;;;8.80;7.73;;;2.80;99.90;;;;;;5034394;28;20629;-77
2023/12/28 09:39:21;;;;;;;9.60;7.87;;;2.90;99.90;;;;;;5033348;28;20248;-78
2023/12/28 09:41:59;;;;;;;9.50;8.03;;;3.00;99.90;;;;;;5033880;28;20630;-78
2023/12/28 09:44:25;;;;;;;9.70;8.33;;;3.10;99.90;;;;;;5034583;28;20624;-78
2023/12/28 09:46:53;;;;;;;9.93;7.33;;;3.20;99.90;;;;;;5034393;28;20570;-79
2023/12/28 09:49:21;;;;;;;9.33;7.23;;;3.20;99.90;;;;;;5033979;28;20200;-76
2023/12/28 09:51:47;;;;;;;10.23;7.40;;;3.40;99.90;;;;;;5037375;28;20182;-78
2023/12/28 09:54:13;;;;;;;8.40;7.50;;;3.40;99.90;;;;;;5049157;28;20215;-76
2023/12/28 09:56:40;;;;;;;12.23;7.03;;;3.60;99.90;;;;;;5047068;28;20169;-78
2023/12/28 09:59:07;;;;;;;6.93;5.90;;;3.70;99.90;;;;;;5034250;28;20263;-76
2023/12/28 10:01:35;;;;;;;7.77;6.47;;;3.90;99.90;;;;;;5034036;28;20664;-78
2023/12/28 10:04:03;;;;;;;8.07;6.47;;;4.10;99.90;;;;;;5034018;28;20209;-77
2023/12/28 10:06:28;;;;;;;7.63;6.50;;;4.20;99.90;;;;;;5033351;28;20199;-77
2023/12/28 10:08:55;;;;;;;7.57;6.77;;;4.30;99.90;;;;;;5032054;28;20239;-80
2023/12/28 10:11:22;;;;;;;9.57;6.83;;;4.40;99.90;;;;;;5043634;28;20157;-77
2023/12/28 10:13:50;;;;;;;12.93;8.80;;;4.50;99.90;;;;;;5038849;28;20191;-78
2023/12/28 10:16:17;;;;;;;13.47;8.43;;;4.60;99.90;;;;;;5033251;28;20180;-77
2023/12/28 10:18:43;;;;;;;9.97;7.60;;;4.70;99.90;;;;;;5033219;28;20169;-77
2023/12/28 10:21:09;;;;;;;9.57;7.03;;;4.80;99.90;;;;;;5034556;28;20216;-78
2023/12/28 10:23:35;;;;;;;11.77;7.10;;;4.80;99.90;;;;;;5032424;28;20535;-78
2023/12/28 10:26:02;;;;;;;7.77;6.30;;;4.90;99.90;;;;;;5037609;28;20174;-78
2023/12/28 10:28:30;;;;;;;7.23;6.53;;;5.00;99.90;;;;;;5046105;28;20226;-78
2023/12/28 10:30:56;;;;;;;7.80;5.93;;;5.10;99.90;;;;;;5046976;28;20214;-77
2023/12/28 10:33:22;;;;;;;6.57;5.90;;;5.10;99.90;;;;;;5039354;28;20182;-78
2023/12/28 10:35:51;;;;;;;8.33;5.50;;;5.20;99.90;;;;;;5037853;28;20173;-78
2023/12/28 10:38:17;;;;;;;8.20;7.20;;;5.30;99.90;;;;;;5038823;28;20180;-77
2023/12/28 10:40:48;;;;;;;7.80;6.67;;;5.40;99.90;;;;;;5038229;28;20269;-76
2023/12/28 10:43:19;;;;;;;8.63;5.57;;;5.40;99.90;;;;;;5045288;28;20188;-76
2023/12/28 10:45:52;;;;;;;7.60;5.53;;;5.50;99.90;;;;;;5053713;28;20177;-76
2023/12/28 10:48:28;;;;;;;6.17;5.60;;;5.70;99.90;;;;;;5048651;28;20201;-78
2023/12/28 10:50:57;;;;;;;10.53;8.40;;;5.80;99.90;;;;;;5038426;28;20215;-77
2023/12/28 10:53:44;;;;;;;8.80;6.70;;;5.90;99.90;;;;;;5037821;28;20620;-79
2023/12/28 10:56:31;;;;;;;7.80;5.60;;;6.00;99.90;;;;;;5037204;28;20651;-78
2023/12/28 10:59:18;;;;;;;6.87;5.70;;;6.10;99.90;;;;;;5036838;28;20216;-78
2023/12/28 11:01:48;;;;;;;5.53;5.00;;;6.10;99.90;;;;;;5037374;28;20192;-78
2023/12/28 11:04:19;;;;;;;8.80;6.50;;;6.20;99.90;;;;;;5036762;28;20210;-75
2023/12/28 11:06:47;;;;;;;6.00;5.50;;;6.40;99.90;;;;;;5043913;28;20535;-77
2023/12/28 11:09:15;;;;;;;9.73;5.90;;;6.40;99.90;;;;;;5045641;28;20224;-78
2023/12/28 11:11:43;;;;;;;6.53;5.93;;;6.40;99.90;;;;;;5037435;28;20174;-77
2023/12/28 11:14:09;;;;;;;9.07;6.33;;;6.50;99.90;;;;;;5036989;28;20178;-77
2023/12/28 11:16:37;;;;;;;7.77;6.20;;;6.60;99.90;;;;;;5036322;28;20202;-78
2023/12/28 11:19:05;;;;;;;6.70;6.10;;;6.70;99.90;;;;;;5036851;28;20631;-77
2023/12/28 11:21:32;;;;;;;7.70;6.03;;;6.80;99.90;;;;;;5035631;28;20176;-78
2023/12/28 11:23:58;;;;;;;7.50;6.00;;;6.80;99.90;;;;;;5036691;28;20176;-77
2023/12/28 11:26:24;;;;;;;7.07;6.30;;;6.90;99.90;;;;;;5036746;28;20674;-76
2023/12/28 11:28:49;;;;;;;7.20;6.00;;;6.90;99.90;;;;;;5036751;28;20208;-77
2023/12/28 11:31:17;;;;;;;9.30;6.90;;;7.00;99.90;;;;;;5048554;28;20170;-77
2023/12/28 11:33:46;;;;;;;8.97;6.73;;;7.00;99.90;;;;;;5041811;28;20209;-77
2023/12/28 11:36:32;;;;;;;7.70;6.90;;;7.00;99.90;;;;;;5037517;28;20200;-75
2023/12/28 11:39:02;;;;;;;9.07;7.40;;;7.00;99.90;;;;;;5037235;28;20714;-76
2023/12/28 11:41:30;;;;;;;8.23;7.23;;;7.00;99.90;;;;;;5053429;28;20256;-76
2023/12/28 11:43:56;;;;;;;8.37;7.33;;;7.00;99.90;;;;;;5053075;28;20206;-77
2023/12/28 11:46:22;;;;;;;7.43;6.63;;;7.00;99.90;;;;;;5036607;28;20584;-77
2023/12/28 11:48:48;;;;;;;8.10;6.97;;;6.90;99.90;;;;;;5035953;28;20234;-76
2023/12/28 11:51:14;;;;;;;7.63;6.37;;;7.00;99.90;;;;;;5036397;28;20175;-77
2023/12/28 11:53:42;;;;;;;7.77;6.03;;;7.00;99.90;;;;;;5051302;28;20214;-78
2023/12/28 11:56:09;;;;;;;8.67;6.43;;;7.10;99.90;;;;;;5040998;28;20165;-79
2023/12/28 11:58:35;;;;;;;7.10;6.43;;;7.10;99.90;;;;;;5035417;28;20191;-76
2023/12/28 12:01:02;;;;;;;7.10;6.33;;;7.10;99.90;;;;;;5035377;28;20179;-77
2023/12/28 12:03:29;;;;;;;6.73;6.00;;;7.20;99.90;;;;;;5035819;28;20183;-79
2023/12/28 12:05:57;;;;;;;7.60;6.13;;;7.20;99.90;;;;;;5035521;28;20176;-77
2023/12/28 12:08:23;;;;;;;8.90;6.60;;;7.30;99.90;;;;;;5035352;28;20324;-77
2023/12/28 12:10:59;;;;;;;6.47;5.87;;;7.30;99.90;;;;;;5035173;28;20215;-79
2023/12/28 12:13:28;;;;;;;10.30;6.03;;;7.30;99.90;;;;;;5035655;28;20249;-77
2023/12/28 12:15:54;;;;;;;6.77;6.03;;;7.30;99.90;;;;;;5036355;28;20179;-77
2023/12/28 12:18:20;;;;;;;6.67;6.03;;;7.40;99.90;;;;;;5035443;28;20647;-77
2023/12/28 12:20:46;;;;;;;8.50;6.73;;;7.40;99.90;;;;;;5034116;28;20215;-78
2023/12/28 12:23:12;;;;;;;8.47;7.10;;;7.40;99.90;;;;;;5033666;28;20179;-77
2023/12/28 12:25:40;;;;;;;16.03;6.93;;;7.50;99.90;;;;;;5034701;28;20263;-78
2023/12/28 12:28:06;;;;;;;7.33;6.43;;;7.50;99.90;;;;;;5034431;28;20579;-76
2023/12/28 12:30:32;;;;;;;9.13;6.80;;;7.50;99.90;;;;;;5039348;28;20233;-76
2023/12/28 12:32:58;;;;;;;6.53;5.93;;;7.60;99.90;;;;;;5048461;28;20179;-79
2023/12/28 12:35:24;;;;;;;7.17;6.47;;;7.60;99.90;;;;;;5035279;28;20261;-78
2023/12/28 12:37:50;;;;;;;8.37;6.67;;;7.60;99.90;;;;;;5034948;28;20199;-77
2023/12/28 12:40:19;;;;;;;9.07;7.07;;;7.60;99.90;;;;;;5032882;28;20182;-80
2023/12/28 12:42:55;;;;;;;10.40;6.90;;;7.60;99.90;;;;;;5036020;28;20183;-78